createdAt,value
2023-03-05T00:04:41.856Z,4.60
2023-03-05T00:12:00.165Z,4.80
2023-03-05T00:19:18.269Z,4.90
2023-03-05T00:26:39.308Z,4.47
2023-03-05T00:33:59.432Z,5.90
2023-03-05T00:41:17.725Z,6.63
2023-03-05T00:48:37.844Z,5.10
2023-03-05T00:55:56.118Z,4.90
2023-03-05T01:03:14.262Z,5.10
2023-03-05T01:10:34.941Z,4.68
2023-03-05T01:17:53.389Z,4.53
2023-03-05T01:25:11.934Z,4.20
2023-03-05T01:32:31.828Z,4.68
2023-03-05T01:39:50.436Z,4.50
2023-03-05T01:47:08.608Z,5.00
2023-03-05T01:54:31.688Z,5.63
2023-03-05T02:01:53.357Z,5.00
2023-03-05T02:09:11.723Z,6.75
2023-03-05T02:16:37.142Z,8.88
2023-03-05T02:23:57.695Z,8.35
2023-03-05T02:31:19.325Z,5.35
2023-03-05T02:38:37.632Z,3.22
2023-03-05T02:45:57.460Z,3.72
2023-03-05T02:53:15.713Z,3.63
2023-03-05T03:00:34.754Z,3.75
2023-03-05T03:07:54.620Z,2.50
2023-03-05T03:15:15.181Z,2.63
2023-03-05T03:22:33.532Z,1.90
2023-03-05T03:29:53.427Z,2.70
2023-03-05T03:37:11.924Z,2.28
2023-03-05T03:44:30.505Z,2.25
2023-03-05T03:51:51.566Z,2.88
2023-03-05T03:59:10.152Z,2.90
2023-03-05T04:06:29.207Z,2.35
2023-03-05T04:13:49.746Z,2.22
2023-03-05T04:21:08.175Z,2.00
2023-03-05T04:28:26.415Z,2.20
2023-03-05T04:35:46.036Z,1.90
2023-03-05T04:43:05.070Z,1.85
2023-03-05T04:50:23.351Z,2.05
2023-03-05T04:57:43.217Z,2.42
2023-03-05T05:05:01.437Z,2.00
2023-03-05T05:12:19.766Z,2.60
2023-03-05T05:19:39.624Z,3.03
2023-03-05T05:26:57.970Z,3.80
2023-03-05T05:34:16.208Z,3.60
2023-03-05T05:41:35.777Z,3.28
2023-03-05T05:48:53.922Z,3.25
2023-03-05T05:56:13.432Z,3.13
2023-03-05T06:03:33.422Z,2.78
2023-03-05T06:10:56.799Z,3.42
2023-03-05T06:25:34.625Z,3.55
2023-03-05T06:32:52.895Z,4.85
2023-03-05T06:40:12.250Z,14.45
2023-03-05T06:47:32.658Z,9.30
2023-03-05T06:54:50.827Z,8.50
2023-03-05T07:11:11.185Z,7.03
2023-03-05T07:18:29.397Z,7.13
2023-03-05T07:25:47.574Z,7.03
2023-03-05T07:33:07.246Z,7.28
2023-03-05T07:40:25.753Z,6.57
2023-03-05T07:47:44.062Z,5.25
2023-03-05T07:55:04.217Z,5.43
2023-03-05T08:02:23.510Z,3.35
2023-03-05T08:09:43.027Z,3.88
2023-03-05T08:17:02.584Z,4.40
2023-03-05T08:24:20.875Z,5.07
2023-03-05T08:31:39.838Z,2.38
2023-03-05T08:39:00.968Z,1.85
2023-03-05T08:46:20.118Z,1.98
2023-03-05T08:53:38.358Z,2.78
2023-03-05T09:00:58.066Z,2.03
2023-03-05T09:08:16.556Z,1.90
2023-03-05T09:15:34.820Z,2.85
2023-03-05T09:22:54.452Z,3.00
2023-03-05T09:30:14.000Z,2.83
2023-03-05T09:37:32.178Z,4.18
2023-03-05T09:44:58.834Z,4.38
2023-03-05T09:52:21.303Z,4.75
2023-03-05T09:59:45.936Z,5.13
2023-03-05T10:07:09.849Z,3.50
2023-03-05T10:14:31.105Z,4.18
2023-03-05T10:21:52.220Z,3.55
2023-03-05T10:29:20.396Z,3.63
2023-03-05T10:36:57.153Z,2.90
2023-03-05T10:44:23.914Z,3.78
2023-03-05T10:51:45.922Z,4.10
2023-03-05T10:59:04.186Z,2.58
2023-03-05T11:06:35.981Z,4.88
2023-03-05T11:13:59.632Z,5.40
2023-03-05T11:21:24.060Z,3.28
2023-03-05T11:28:59.246Z,3.78
2023-03-05T11:36:26.611Z,3.10
2023-03-05T11:43:46.278Z,2.83
2023-03-05T11:51:09.501Z,3.28
2023-03-05T11:58:32.378Z,3.58
2023-03-05T12:05:54.119Z,4.20
2023-03-05T12:13:16.708Z,4.28
2023-03-05T12:20:40.359Z,3.78
2023-03-05T12:28:00.187Z,4.43
2023-03-05T12:35:26.639Z,5.80
2023-03-05T12:42:53.121Z,3.08
2023-03-05T12:50:49.908Z,4.13
2023-03-05T12:58:14.203Z,4.93
2023-03-05T13:05:34.261Z,3.53
2023-03-05T13:12:55.952Z,3.58
2023-03-05T13:20:38.517Z,3.70
2023-03-05T13:28:04.862Z,3.10
2023-03-05T13:35:23.230Z,4.30
2023-03-05T13:42:41.486Z,3.92
2023-03-05T13:50:05.252Z,4.43
2023-03-05T13:57:40.830Z,3.58
2023-03-05T14:05:00.975Z,3.53
2023-03-05T14:12:28.426Z,3.42
2023-03-05T14:19:47.570Z,3.50
2023-03-05T14:27:13.757Z,4.22
2023-03-05T14:34:33.789Z,3.60
2023-03-05T14:41:52.194Z,7.82
2023-03-05T14:49:12.249Z,14.98
2023-03-05T14:56:30.573Z,4.50
2023-03-05T15:03:49.026Z,6.22
2023-03-05T15:11:11.301Z,5.35
2023-03-05T15:18:29.703Z,4.70
2023-03-05T15:25:47.949Z,4.15
2023-03-05T15:33:09.373Z,3.80
2023-03-05T15:40:28.571Z,6.40
2023-03-05T15:47:46.804Z,5.90
2023-03-05T15:55:07.238Z,7.32
2023-03-05T16:02:25.491Z,5.18
2023-03-05T16:09:46.132Z,4.07
2023-03-05T16:17:06.698Z,6.10
2023-03-05T16:24:25.266Z,5.68
2023-03-05T16:31:45.425Z,4.60
2023-03-05T16:39:06.162Z,8.02
2023-03-05T16:46:25.296Z,17.27
2023-03-05T16:53:45.079Z,15.32
2023-03-05T17:01:08.218Z,6.45
2023-03-05T17:08:26.652Z,9.25
2023-03-05T17:15:45.140Z,7.32
2023-03-05T17:23:04.763Z,10.02
2023-03-05T17:30:23.051Z,9.75
2023-03-05T17:37:41.405Z,8.70
2023-03-05T17:45:11.510Z,9.02
2023-03-05T17:52:29.849Z,9.77
2023-03-05T17:59:48.508Z,7.90
2023-03-05T18:07:08.313Z,10.25
2023-03-05T18:14:26.694Z,10.77
2023-03-05T18:21:45.050Z,9.95
2023-03-05T18:29:04.853Z,7.68
2023-03-05T18:36:23.286Z,9.38
2023-03-05T18:43:41.994Z,8.45
2023-03-05T18:51:02.216Z,8.18
2023-03-05T18:58:21.090Z,32.92
2023-03-05T19:05:39.852Z,9.40
2023-03-05T19:13:08.129Z,8.15
2023-03-05T19:20:26.542Z,8.93
2023-03-05T19:27:44.979Z,9.65
2023-03-05T19:35:06.910Z,9.93
2023-03-05T19:42:25.169Z,9.00
2023-03-05T19:49:43.575Z,12.10
2023-03-05T19:57:03.894Z,11.82
2023-03-05T20:04:24.328Z,19.10
2023-03-05T20:11:43.032Z,17.90
2023-03-05T20:19:04.205Z,12.63
2023-03-05T20:26:23.581Z,9.38
2023-03-05T20:33:42.198Z,8.90
2023-03-05T20:41:03.520Z,9.15
2023-03-05T20:48:22.092Z,9.48
2023-03-05T20:55:40.690Z,11.18
2023-03-05T21:03:00.545Z,9.48
2023-03-05T21:10:18.845Z,8.45
2023-03-05T21:17:37.155Z,14.05
2023-03-05T21:25:03.506Z,8.13
2023-03-05T21:32:23.297Z,8.25
2023-03-05T21:39:41.607Z,7.88
2023-03-05T21:47:02.334Z,8.07
2023-03-05T21:54:20.776Z,8.20
2023-03-05T22:01:38.972Z,10.77
2023-03-05T22:08:58.524Z,8.07
2023-03-05T22:16:23.353Z,8.32
2023-03-05T22:23:41.649Z,7.68
2023-03-05T22:31:01.376Z,7.70
2023-03-05T22:38:20.067Z,7.13
2023-03-05T22:45:41.736Z,6.38
2023-03-05T22:53:02.069Z,6.07
2023-03-05T23:00:23.927Z,6.28
2023-03-05T23:07:43.160Z,6.38
2023-03-05T23:15:04.029Z,6.57
2023-03-05T23:22:23.077Z,6.78
2023-03-05T23:29:58.887Z,6.97
2023-03-05T23:37:18.555Z,6.97
2023-03-05T23:44:37.189Z,7.68
2023-03-05T23:51:55.644Z,8.43
2023-03-05T23:59:15.473Z,8.02
